createdAt,value
2022-08-16T00:00:28.787Z,20.02
2022-08-16T00:01:33.656Z,19.96
2022-08-16T00:02:28.804Z,19.98
2022-08-16T00:03:27.757Z,19.92
2022-08-16T00:04:27.742Z,19.87
2022-08-16T00:05:27.730Z,19.80
2022-08-16T00:06:28.741Z,19.83
2022-08-16T00:07:28.945Z,19.74
2022-08-16T00:08:37.089Z,19.74
2022-08-16T00:09:28.684Z,19.73
2022-08-16T00:10:27.696Z,19.71
2022-08-16T00:11:27.661Z,19.71
2022-08-16T00:12:27.675Z,19.66
2022-08-16T00:13:27.662Z,19.68
2022-08-16T00:14:29.233Z,19.55
2022-08-16T00:15:51.442Z,19.65
2022-08-16T00:17:05.886Z,19.55
2022-08-16T00:17:28.595Z,19.51
2022-08-16T00:18:29.801Z,19.58
2022-08-16T00:19:28.231Z,19.62
2022-08-16T00:20:27.567Z,19.54
2022-08-16T00:21:29.209Z,19.54
2022-08-16T00:22:27.954Z,19.51
2022-08-16T00:23:34.923Z,19.50
2022-08-16T00:24:31.110Z,19.50
2022-08-16T00:26:13.622Z,19.46
2022-08-16T00:26:35.001Z,19.43
2022-08-16T00:27:30.695Z,19.54
2022-08-16T00:28:29.873Z,19.39
2022-08-16T00:29:29.633Z,19.41
2022-08-16T00:30:29.128Z,19.46
2022-08-16T00:31:27.442Z,19.40
2022-08-16T00:32:28.431Z,19.40
2022-08-16T00:33:27.417Z,19.46
2022-08-16T00:34:43.419Z,19.47
2022-08-16T00:35:28.422Z,19.37
2022-08-16T00:36:27.393Z,19.31
2022-08-16T00:37:57.374Z,19.33
2022-08-16T00:38:40.086Z,19.31
2022-08-16T00:39:28.379Z,19.28
2022-08-16T00:40:34.941Z,19.36
2022-08-16T00:41:28.331Z,19.23
2022-08-16T00:42:30.065Z,19.32
2022-08-16T00:43:42.655Z,19.28
2022-08-16T00:44:32.676Z,19.28
2022-08-16T00:45:27.287Z,19.31
2022-08-16T00:46:34.191Z,19.23
2022-08-16T00:47:29.975Z,19.25
2022-08-16T00:48:30.587Z,19.22
2022-08-16T00:49:27.241Z,19.13
2022-08-16T00:50:36.635Z,19.23
2022-08-16T00:51:29.406Z,19.14
2022-08-16T00:52:30.327Z,19.13
2022-08-16T00:53:27.197Z,19.18
2022-08-16T00:54:27.190Z,19.19
2022-08-16T00:55:27.179Z,19.06
2022-08-16T00:56:58.396Z,19.08
2022-08-16T00:57:58.321Z,19.06
2022-08-16T00:58:34.555Z,18.94
2022-08-16T00:59:28.130Z,18.94
2022-08-16T01:00:27.415Z,18.94
2022-08-16T01:01:27.141Z,18.94
2022-08-16T01:02:30.868Z,18.84
2022-08-16T01:03:30.518Z,18.78
2022-08-16T01:04:30.050Z,18.80
2022-08-16T01:05:27.060Z,18.82
2022-08-16T01:06:39.679Z,18.84
2022-08-16T01:07:28.040Z,18.81
2022-08-16T01:08:36.120Z,18.81
2022-08-16T01:09:33.332Z,18.75
2022-08-16T01:10:32.201Z,18.75
2022-08-16T01:11:27.995Z,18.73
2022-08-16T01:12:27.009Z,18.76
2022-08-16T01:13:26.975Z,18.72
2022-08-16T01:14:30.128Z,18.63
2022-08-16T01:15:26.963Z,18.65
2022-08-16T01:16:26.939Z,18.63
2022-08-16T01:17:26.927Z,18.63
2022-08-16T01:18:39.829Z,18.67
2022-08-16T01:19:27.932Z,18.55
2022-08-16T01:20:30.474Z,18.54
2022-08-16T01:21:33.402Z,18.55
2022-08-16T01:22:47.520Z,18.62
2022-08-16T01:23:27.862Z,18.50
2022-08-16T01:24:53.493Z,18.54
2022-08-16T01:25:34.195Z,18.51
2022-08-16T01:26:35.040Z,18.57
2022-08-16T01:27:27.814Z,18.58
2022-08-16T01:28:30.966Z,18.50
2022-08-16T01:29:57.202Z,18.54
2022-08-16T01:30:27.819Z,18.48
2022-08-16T01:31:29.768Z,18.55
2022-08-16T01:32:34.048Z,18.44
2022-08-16T01:33:33.460Z,18.47
2022-08-16T01:34:27.738Z,18.44
2022-08-16T01:35:26.752Z,18.44
2022-08-16T01:36:26.822Z,18.36
2022-08-16T01:37:26.710Z,18.41
2022-08-16T01:38:28.546Z,18.39
2022-08-16T01:39:26.698Z,18.36
2022-08-16T01:40:26.676Z,18.37
2022-08-16T01:41:26.684Z,18.37
2022-08-16T01:42:26.682Z,18.41
2022-08-16T01:43:26.659Z,18.41
2022-08-16T01:44:26.918Z,18.27
2022-08-16T01:45:39.837Z,18.32
2022-08-16T01:46:30.033Z,18.37
2022-08-16T01:47:27.596Z,18.37
2022-08-16T01:48:26.597Z,18.27
2022-08-16T01:49:43.225Z,18.29
2022-08-16T01:50:42.483Z,18.30
2022-08-16T01:51:27.547Z,18.35
2022-08-16T01:52:29.694Z,18.25
2022-08-16T01:53:26.530Z,18.30
2022-08-16T01:54:30.597Z,18.27
2022-08-16T01:55:26.505Z,18.23
2022-08-16T01:56:27.516Z,18.25
2022-08-16T01:57:26.504Z,18.27
2022-08-16T01:58:26.473Z,18.25
2022-08-16T01:59:29.488Z,18.27
2022-08-16T02:00:29.126Z,18.26
2022-08-16T02:01:28.436Z,18.23
2022-08-16T02:02:28.678Z,18.25
2022-08-16T02:03:26.676Z,18.23
2022-08-16T02:04:48.989Z,18.27
2022-08-16T02:05:30.606Z,18.26
2022-08-16T02:06:34.154Z,18.32
2022-08-16T02:07:27.372Z,18.18
2022-08-16T02:08:33.321Z,18.14
2022-08-16T02:09:27.356Z,18.21
2022-08-16T02:10:27.362Z,18.21
2022-08-16T02:11:26.324Z,18.18
2022-08-16T02:12:49.640Z,18.12
2022-08-16T02:13:27.613Z,18.15
2022-08-16T02:14:27.305Z,18.21
2022-08-16T02:15:26.514Z,18.26
2022-08-16T02:16:26.271Z,18.14
2022-08-16T02:17:26.263Z,18.00
2022-08-16T02:18:26.251Z,18.05
2022-08-16T02:19:59.094Z,17.99
2022-08-16T02:20:27.889Z,18.08
2022-08-16T02:21:31.533Z,17.95
2022-08-16T02:22:35.167Z,18.02
2022-08-16T02:23:27.196Z,17.97
2022-08-16T02:24:32.119Z,17.96
2022-08-16T02:25:34.914Z,17.90
2022-08-16T02:26:27.168Z,17.92
2022-08-16T02:27:26.171Z,17.97
2022-08-16T02:28:26.141Z,17.97
2022-08-16T02:29:32.095Z,17.92
2022-08-16T02:30:36.862Z,17.93
2022-08-16T02:32:03.419Z,17.86
2022-08-16T02:32:50.576Z,17.87
2022-08-16T02:33:43.500Z,17.89
2022-08-16T02:34:34.749Z,17.90
2022-08-16T02:35:27.059Z,17.90
2022-08-16T02:36:47.129Z,17.82
2022-08-16T02:37:52.059Z,17.89
2022-08-16T02:38:27.029Z,17.79
2022-08-16T02:39:26.096Z,17.82
2022-08-16T02:40:26.005Z,17.81
2022-08-16T02:41:26.014Z,17.78
2022-08-16T02:42:26.002Z,17.75
2022-08-16T02:43:26.860Z,17.77
2022-08-16T02:44:25.967Z,17.71
2022-08-16T02:45:27.897Z,17.77
2022-08-16T02:46:33.406Z,17.74
2022-08-16T02:47:26.948Z,17.68
2022-08-16T02:48:29.434Z,17.66
2022-08-16T02:49:58.533Z,17.64
2022-08-16T02:50:54.376Z,17.68
2022-08-16T02:51:26.899Z,17.64
2022-08-16T02:52:29.367Z,17.71
2022-08-16T02:53:25.861Z,17.66
2022-08-16T02:54:25.896Z,17.58
2022-08-16T02:55:41.242Z,17.54
2022-08-16T02:56:32.035Z,17.64
2022-08-16T02:57:26.848Z,17.56
2022-08-16T02:58:25.804Z,17.58
2022-08-16T02:59:25.800Z,17.66
2022-08-16T03:00:34.554Z,17.58
2022-08-16T03:01:37.317Z,17.66
2022-08-16T03:02:31.906Z,17.62
2022-08-16T03:03:26.830Z,17.54
2022-08-16T03:04:46.350Z,17.58
2022-08-16T03:05:26.724Z,17.54
2022-08-16T03:06:41.312Z,17.44
2022-08-16T03:07:27.518Z,17.49
2022-08-16T03:08:49.919Z,17.48
2022-08-16T03:09:28.837Z,17.43
2022-08-16T03:10:33.753Z,17.40
2022-08-16T03:11:26.681Z,17.36
2022-08-16T03:12:30.461Z,17.43
2022-08-16T03:13:26.638Z,17.41
2022-08-16T03:14:25.625Z,17.44
2022-08-16T03:15:25.618Z,17.43
2022-08-16T03:16:38.397Z,17.38
2022-08-16T03:17:32.317Z,17.46
2022-08-16T03:18:34.491Z,17.37
2022-08-16T03:19:26.568Z,17.38
2022-08-16T03:20:32.337Z,17.40
2022-08-16T03:21:26.566Z,17.38
2022-08-16T03:22:28.875Z,17.38
2022-08-16T03:23:25.529Z,17.41
2022-08-16T03:24:29.398Z,17.40
2022-08-16T03:25:25.534Z,17.43
2022-08-16T03:26:26.492Z,17.46
2022-08-16T03:27:25.613Z,17.37
2022-08-16T03:28:26.467Z,17.41
2022-08-16T03:29:25.460Z,17.38
2022-08-16T03:30:25.449Z,17.36
2022-08-16T03:31:25.438Z,17.36
2022-08-16T03:32:26.446Z,17.33
2022-08-16T03:33:25.436Z,17.22
2022-08-16T03:34:25.403Z,17.28
2022-08-16T03:35:33.015Z,17.28
2022-08-16T03:36:30.708Z,17.25
2022-08-16T03:37:26.392Z,17.33
2022-08-16T03:38:33.027Z,17.30
2022-08-16T03:39:27.136Z,17.22
2022-08-16T03:40:33.090Z,17.21
2022-08-16T03:41:29.531Z,17.16
2022-08-16T03:42:26.311Z,17.19
2022-08-16T03:43:51.618Z,17.15
2022-08-16T03:44:44.734Z,17.18
2022-08-16T03:45:27.357Z,17.15
2022-08-16T03:46:47.934Z,17.21
2022-08-16T03:47:26.260Z,17.22
2022-08-16T03:48:36.387Z,17.21
2022-08-16T03:49:37.036Z,17.15
2022-08-16T03:50:26.905Z,17.23
2022-08-16T03:51:25.559Z,17.08
2022-08-16T03:52:31.403Z,17.18
2022-08-16T03:53:26.191Z,17.16
2022-08-16T03:54:26.203Z,17.14
2022-08-16T03:55:25.177Z,17.14
2022-08-16T03:56:26.181Z,17.14
2022-08-16T03:57:31.491Z,17.11
2022-08-16T03:58:26.135Z,17.15
2022-08-16T03:59:25.122Z,17.12
2022-08-16T04:00:36.092Z,17.14
2022-08-16T04:01:29.450Z,17.14
2022-08-16T04:02:31.492Z,17.15
2022-08-16T04:03:26.078Z,17.18
2022-08-16T04:04:33.111Z,17.14
2022-08-16T04:05:26.058Z,17.12
2022-08-16T04:06:25.046Z,17.14
2022-08-16T04:07:25.035Z,17.14
2022-08-16T04:08:25.031Z,17.15
2022-08-16T04:09:25.012Z,17.11
2022-08-16T04:10:35.787Z,17.15
2022-08-16T04:11:25.991Z,17.12
2022-08-16T04:12:53.648Z,17.06
2022-08-16T04:13:59.270Z,17.14
2022-08-16T04:14:31.100Z,17.14
2022-08-16T04:15:26.292Z,17.18
2022-08-16T04:16:27.880Z,17.21
2022-08-16T04:17:24.924Z,17.18
2022-08-16T04:18:24.997Z,17.19
2022-08-16T04:19:24.903Z,17.22
2022-08-16T04:20:33.863Z,17.19
2022-08-16T04:21:29.572Z,17.16
2022-08-16T04:22:27.530Z,17.15
2022-08-16T04:23:24.858Z,17.19
2022-08-16T04:24:28.896Z,17.22
2022-08-16T04:25:24.835Z,17.23
2022-08-16T04:26:24.849Z,17.23
2022-08-16T04:27:28.740Z,17.22
2022-08-16T04:28:53.193Z,17.21
2022-08-16T04:29:25.792Z,17.22
2022-08-16T04:30:31.767Z,17.22
2022-08-16T04:31:25.793Z,17.28
2022-08-16T04:32:24.766Z,17.26
2022-08-16T04:33:27.372Z,17.18
2022-08-16T04:34:24.994Z,17.16
2022-08-16T04:35:24.745Z,17.22
2022-08-16T04:36:24.733Z,17.15
2022-08-16T04:37:25.490Z,17.19
2022-08-16T04:38:24.692Z,17.23
2022-08-16T04:39:24.730Z,17.26
2022-08-16T04:40:25.785Z,17.19
2022-08-16T04:41:32.829Z,17.26
2022-08-16T04:42:26.125Z,17.25
2022-08-16T04:43:24.639Z,17.30
2022-08-16T04:44:52.441Z,17.23
2022-08-16T04:45:35.690Z,17.25
2022-08-16T04:47:00.275Z,17.33
2022-08-16T04:47:25.615Z,17.41
2022-08-16T04:48:32.490Z,17.33
2022-08-16T04:49:25.568Z,17.28
2022-08-16T04:50:30.357Z,17.41
2022-08-16T04:51:25.554Z,17.46
2022-08-16T04:52:33.313Z,17.41
2022-08-16T04:53:25.547Z,17.41
2022-08-16T04:54:24.522Z,17.43
2022-08-16T04:55:31.686Z,17.44
2022-08-16T04:56:25.488Z,17.40
2022-08-16T04:57:24.509Z,17.36
2022-08-16T04:58:45.595Z,17.48
2022-08-16T04:59:29.485Z,17.40
2022-08-16T05:00:25.276Z,17.51
2022-08-16T05:01:58.902Z,17.48
2022-08-16T05:02:42.044Z,17.51
2022-08-16T05:03:26.137Z,17.58
2022-08-16T05:04:24.408Z,17.58
2022-08-16T05:05:25.393Z,17.64
2022-08-16T05:06:42.255Z,17.59
2022-08-16T05:07:25.371Z,17.59
2022-08-16T05:08:29.807Z,17.64
2022-08-16T05:09:25.376Z,17.70
2022-08-16T05:10:24.353Z,17.58
2022-08-16T05:11:24.350Z,17.59
2022-08-16T05:12:30.782Z,17.64
2022-08-16T05:13:25.302Z,17.62
2022-08-16T05:14:45.565Z,17.68
2022-08-16T05:15:25.285Z,17.74
2022-08-16T05:16:24.294Z,17.72
2022-08-16T05:17:24.612Z,17.72
2022-08-16T05:18:27.443Z,17.72
2022-08-16T05:19:24.255Z,17.75
2022-08-16T05:20:24.222Z,17.78
2022-08-16T05:21:25.232Z,17.81
2022-08-16T05:22:24.202Z,17.82
2022-08-16T05:23:24.195Z,17.81
2022-08-16T05:24:25.177Z,17.89
2022-08-16T05:25:24.192Z,17.86
2022-08-16T05:26:27.996Z,17.95
2022-08-16T05:27:24.146Z,17.92
2022-08-16T05:28:30.971Z,17.99
2022-08-16T05:29:57.538Z,17.87
2022-08-16T05:30:35.645Z,18.05
2022-08-16T05:31:29.590Z,18.12
2022-08-16T05:32:33.955Z,18.12
2022-08-16T05:33:25.079Z,18.18
2022-08-16T05:34:24.066Z,18.23
2022-08-16T05:35:24.463Z,18.26
2022-08-16T05:36:24.074Z,18.11
2022-08-16T05:37:25.034Z,18.20
2022-08-16T05:38:32.846Z,18.25
2022-08-16T05:39:25.051Z,18.27
2022-08-16T05:40:24.023Z,18.32
2022-08-16T05:41:23.991Z,18.32
2022-08-16T05:42:35.626Z,18.32
2022-08-16T05:43:24.972Z,18.35
2022-08-16T05:44:25.080Z,18.44
2022-08-16T05:45:23.947Z,18.48
2022-08-16T05:46:29.630Z,18.55
2022-08-16T05:47:24.930Z,18.66
2022-08-16T05:48:26.871Z,18.69
2022-08-16T05:49:23.903Z,18.75
2022-08-16T05:50:28.308Z,18.76
2022-08-16T05:51:39.002Z,18.81
2022-08-16T05:52:27.784Z,18.95
2022-08-16T05:53:24.430Z,19.02
2022-08-16T05:54:25.678Z,19.11
2022-08-16T05:55:23.832Z,19.16
2022-08-16T05:56:23.842Z,19.32
2022-08-16T05:57:23.817Z,19.28
2022-08-16T05:58:32.786Z,19.47
2022-08-16T05:59:24.811Z,19.59
2022-08-16T06:00:23.797Z,19.92
2022-08-16T06:01:23.810Z,20.28
2022-08-16T06:02:23.758Z,20.54
2022-08-16T06:03:24.746Z,20.94
2022-08-16T06:04:35.937Z,21.14
2022-08-16T06:05:24.722Z,21.49
2022-08-16T06:06:28.967Z,21.68
2022-08-16T06:07:26.668Z,21.96
2022-08-16T06:08:32.429Z,22.07
2022-08-16T06:09:24.850Z,22.24
2022-08-16T06:10:32.514Z,22.45
2022-08-16T06:11:25.546Z,22.51
2022-08-16T06:12:27.517Z,22.64
2022-08-16T06:13:24.636Z,22.64
2022-08-16T06:14:24.627Z,22.64
2022-08-16T06:15:23.915Z,22.83
2022-08-16T06:16:23.601Z,22.83
2022-08-16T06:17:23.594Z,22.67
2022-08-16T06:18:27.238Z,22.52
2022-08-16T06:19:23.738Z,22.57
2022-08-16T06:20:25.627Z,22.70
2022-08-16T06:21:24.562Z,22.83
2022-08-16T06:22:48.205Z,22.83
2022-08-16T06:23:24.820Z,22.85
2022-08-16T06:24:54.700Z,22.70
2022-08-16T06:25:35.567Z,22.70
2022-08-16T06:26:24.493Z,22.65
2022-08-16T06:27:24.488Z,22.76
2022-08-16T06:28:36.148Z,22.65
2022-08-16T06:29:24.479Z,22.76
2022-08-16T06:30:23.449Z,22.79
2022-08-16T06:31:24.715Z,22.80
2022-08-16T06:32:27.680Z,22.67
2022-08-16T06:33:24.412Z,22.67
2022-08-16T06:34:54.858Z,22.75
2022-08-16T06:35:24.413Z,22.68
2022-08-16T06:36:23.380Z,22.72
2022-08-16T06:37:23.370Z,22.62
2022-08-16T06:38:33.387Z,22.67
2022-08-16T06:39:24.373Z,22.65
2022-08-16T06:40:23.439Z,22.57
2022-08-16T06:41:27.380Z,22.64
2022-08-16T06:42:23.313Z,22.43
2022-08-16T06:43:27.186Z,22.20
2022-08-16T06:44:24.444Z,22.22
2022-08-16T06:45:24.016Z,22.39
2022-08-16T06:46:24.271Z,22.42
2022-08-16T06:47:24.284Z,22.43
2022-08-16T06:48:32.725Z,22.43
2022-08-16T06:49:24.263Z,22.55
2022-08-16T06:50:28.421Z,22.58
2022-08-16T06:51:24.216Z,22.58
2022-08-16T06:52:58.018Z,22.61
2022-08-16T06:53:24.219Z,22.64
2022-08-16T06:54:23.183Z,22.67
2022-08-16T06:55:23.175Z,22.57
2022-08-16T06:56:23.740Z,22.43
2022-08-16T06:57:23.155Z,22.43
2022-08-16T06:58:23.144Z,22.49
2022-08-16T06:59:25.869Z,22.58
2022-08-16T07:00:24.321Z,22.54
2022-08-16T07:01:44.844Z,22.57
2022-08-16T07:02:33.303Z,22.57
2022-08-16T07:03:28.043Z,22.62
2022-08-16T07:04:31.921Z,22.70
2022-08-16T07:05:27.324Z,22.65
2022-08-16T07:06:26.441Z,22.60
2022-08-16T07:07:23.145Z,22.76
2022-08-16T07:08:23.040Z,22.77
2022-08-16T07:09:23.043Z,22.79
2022-08-16T07:10:25.783Z,23.00
2022-08-16T07:11:47.359Z,23.15
2022-08-16T07:12:45.814Z,23.31
2022-08-16T07:13:58.819Z,23.51
2022-08-16T07:14:27.021Z,23.76
2022-08-16T07:15:22.958Z,24.10
2022-08-16T07:16:22.949Z,24.09
2022-08-16T07:17:22.937Z,24.12
2022-08-16T07:18:24.327Z,24.09
2022-08-16T07:19:22.912Z,23.95
2022-08-16T07:20:34.890Z,24.24
2022-08-16T07:21:23.909Z,24.42
2022-08-16T07:22:39.190Z,24.71
2022-08-16T07:23:38.967Z,24.91
2022-08-16T07:24:26.933Z,25.13
2022-08-16T07:25:23.868Z,25.24
2022-08-16T07:26:24.387Z,25.36
2022-08-16T07:27:22.895Z,25.45
2022-08-16T07:28:24.575Z,25.61
2022-08-16T07:29:22.807Z,25.54
2022-08-16T07:30:39.877Z,25.79
2022-08-16T07:31:23.807Z,25.50
2022-08-16T07:32:29.435Z,25.70
2022-08-16T07:33:52.712Z,25.92
2022-08-16T07:34:35.109Z,25.94
2022-08-16T07:35:23.733Z,26.07
2022-08-16T07:36:22.909Z,26.26
2022-08-16T07:37:23.250Z,26.28
2022-08-16T07:38:33.963Z,26.43
2022-08-16T07:39:23.768Z,26.44
2022-08-16T07:40:49.280Z,26.45
2022-08-16T07:41:23.669Z,26.51
2022-08-16T07:42:28.279Z,26.52
2022-08-16T07:43:23.647Z,26.51
2022-08-16T07:44:23.643Z,26.58
2022-08-16T07:45:22.634Z,26.48
2022-08-16T07:46:39.233Z,26.43
2022-08-16T07:47:24.523Z,26.55
2022-08-16T07:48:24.151Z,26.72
2022-08-16T07:49:22.584Z,26.91
2022-08-16T07:50:56.563Z,26.88
2022-08-16T07:51:23.584Z,26.81
2022-08-16T07:52:22.554Z,26.81
2022-08-16T07:53:22.548Z,27.04
2022-08-16T07:54:38.052Z,27.28
2022-08-16T07:55:23.544Z,27.43
2022-08-16T07:56:22.512Z,27.46
2022-08-16T07:57:24.099Z,27.22
2022-08-16T07:58:34.175Z,27.00
2022-08-16T07:59:23.477Z,27.10
2022-08-16T08:00:26.365Z,27.22
2022-08-16T08:01:22.535Z,27.37
2022-08-16T08:02:22.451Z,27.32
2022-08-16T08:03:23.684Z,27.36
2022-08-16T08:04:23.422Z,27.36
2022-08-16T08:05:25.604Z,27.44
2022-08-16T08:06:24.959Z,27.55
2022-08-16T08:07:22.512Z,27.70
2022-08-16T08:08:49.253Z,27.51
2022-08-16T08:09:23.375Z,27.47
2022-08-16T08:10:29.634Z,27.67
2022-08-16T08:11:23.681Z,27.75
2022-08-16T08:12:31.886Z,27.72
2022-08-16T08:13:41.930Z,27.39
2022-08-16T08:14:29.830Z,27.59
2022-08-16T08:15:25.310Z,27.40
2022-08-16T08:16:22.299Z,27.34
2022-08-16T08:17:23.305Z,27.66
2022-08-16T08:18:30.189Z,27.99
2022-08-16T08:19:23.259Z,28.14
2022-08-16T08:20:26.608Z,28.04
2022-08-16T08:21:27.304Z,27.97
2022-08-16T08:22:22.404Z,27.93
2022-08-16T08:23:22.243Z,27.93
2022-08-16T08:24:22.214Z,28.09
2022-08-16T08:25:23.196Z,28.25
2022-08-16T08:26:22.200Z,28.46
2022-08-16T08:27:22.854Z,28.55
2022-08-16T08:28:22.199Z,28.64
2022-08-16T08:29:22.996Z,28.76
2022-08-16T08:30:52.129Z,28.95
2022-08-16T08:31:23.133Z,28.92
2022-08-16T08:32:57.509Z,29.15
2022-08-16T08:33:23.138Z,29.09
2022-08-16T08:34:22.368Z,29.19
2022-08-16T08:35:26.843Z,29.30
2022-08-16T08:36:23.106Z,29.46
2022-08-16T08:37:22.070Z,29.42
2022-08-16T08:38:45.872Z,29.58
2022-08-16T08:39:23.085Z,29.65
2022-08-16T08:40:24.672Z,29.74
2022-08-16T08:41:27.702Z,29.92
2022-08-16T08:42:26.693Z,29.92
2022-08-16T08:43:22.005Z,29.94
2022-08-16T08:44:28.050Z,29.80
2022-08-16T08:45:47.042Z,29.92
2022-08-16T08:46:22.996Z,29.85
2022-08-16T08:47:22.521Z,29.89
2022-08-16T08:48:32.810Z,29.87
2022-08-16T08:49:22.942Z,29.90
2022-08-16T08:50:32.127Z,30.07
2022-08-16T08:51:22.945Z,30.17
2022-08-16T08:52:34.849Z,30.16
2022-08-16T08:53:23.534Z,30.10
2022-08-16T08:54:22.966Z,30.07
2022-08-16T08:55:21.881Z,30.10
2022-08-16T08:56:22.863Z,30.05
2022-08-16T08:57:22.893Z,29.94
2022-08-16T08:58:21.849Z,30.01
2022-08-16T08:59:22.359Z,29.74
2022-08-16T09:00:21.831Z,29.74
2022-08-16T09:01:31.421Z,29.89
2022-08-16T09:02:22.811Z,29.82
2022-08-16T09:03:21.796Z,29.74
2022-08-16T09:04:21.908Z,29.86
2022-08-16T09:05:22.277Z,30.16
2022-08-16T09:06:21.767Z,30.34
2022-08-16T09:07:21.754Z,30.47
2022-08-16T09:08:22.103Z,30.49
2022-08-16T09:09:21.755Z,30.49
2022-08-16T09:10:21.916Z,30.62
2022-08-16T09:11:21.714Z,30.57
2022-08-16T09:12:34.995Z,30.43
2022-08-16T09:13:22.692Z,30.45
2022-08-16T09:14:24.153Z,30.65
2022-08-16T09:15:21.821Z,30.80
2022-08-16T09:17:03.446Z,30.98
2022-08-16T09:17:45.661Z,30.92
2022-08-16T09:18:25.114Z,30.95
2022-08-16T09:19:32.221Z,31.09
2022-08-16T09:20:23.409Z,31.17
2022-08-16T09:21:21.608Z,31.31
2022-08-16T09:22:22.599Z,31.26
2022-08-16T09:23:21.608Z,31.48
2022-08-16T09:24:46.751Z,31.25
2022-08-16T09:25:26.336Z,31.25
2022-08-16T09:26:45.774Z,31.20
2022-08-16T09:27:23.579Z,31.32
2022-08-16T09:29:13.927Z,31.65
2022-08-16T09:29:23.986Z,31.56
2022-08-16T09:30:34.535Z,31.54
2022-08-16T09:31:22.507Z,31.53
2022-08-16T09:32:28.466Z,31.57
2022-08-16T09:33:22.506Z,31.57
2022-08-16T09:34:21.479Z,31.31
2022-08-16T09:35:21.461Z,31.16
2022-08-16T09:36:31.925Z,31.26
2022-08-16T09:37:29.794Z,31.41
2022-08-16T09:38:32.230Z,31.48
2022-08-16T09:39:22.469Z,31.58
2022-08-16T09:40:32.506Z,31.75
2022-08-16T09:41:22.401Z,31.81
2022-08-16T09:42:21.392Z,31.99
2022-08-16T09:43:58.673Z,32.10
2022-08-16T09:45:10.847Z,31.93
2022-08-16T09:45:22.382Z,31.65
2022-08-16T09:46:45.508Z,31.66
2022-08-16T09:47:23.562Z,31.88
2022-08-16T09:48:36.964Z,31.88
2022-08-16T09:49:22.336Z,32.13
2022-08-16T09:50:22.692Z,32.07
2022-08-16T09:51:23.455Z,31.93
2022-08-16T09:52:22.342Z,31.92
2022-08-16T09:53:21.282Z,32.00
2022-08-16T09:54:21.267Z,31.95
2022-08-16T09:55:21.275Z,32.15
2022-08-16T09:56:21.246Z,32.10
2022-08-16T09:57:22.807Z,32.19
2022-08-16T09:58:40.596Z,32.18
2022-08-16T09:59:22.556Z,32.29
2022-08-16T10:00:44.489Z,32.15
2022-08-16T10:01:22.299Z,32.30
2022-08-16T10:02:26.525Z,32.25
2022-08-16T10:03:22.234Z,32.08
2022-08-16T10:04:30.273Z,32.21
2022-08-16T10:05:22.146Z,32.29
2022-08-16T10:06:21.141Z,32.03
2022-08-16T10:07:21.126Z,32.15
2022-08-16T10:08:26.184Z,32.13
2022-08-16T10:09:22.126Z,32.19
2022-08-16T10:10:30.899Z,32.38
2022-08-16T10:11:23.893Z,32.51
2022-08-16T10:12:21.077Z,32.56
2022-08-16T10:13:21.066Z,32.40
2022-08-16T10:14:24.495Z,32.30
2022-08-16T10:15:23.035Z,31.85
2022-08-16T10:16:21.985Z,31.85
2022-08-16T10:17:21.060Z,32.11
2022-08-16T10:19:00.484Z,32.23
2022-08-16T10:19:22.037Z,32.30
2022-08-16T10:20:20.997Z,32.35
2022-08-16T10:21:22.719Z,32.38
2022-08-16T10:22:22.935Z,32.40
2022-08-16T10:23:20.961Z,32.51
2022-08-16T10:24:28.679Z,32.72
2022-08-16T10:27:19.832Z,32.56
2022-08-16T10:27:19.943Z,32.70
2022-08-16T10:27:27.344Z,32.40
2022-08-16T10:28:28.802Z,32.37
2022-08-16T10:29:21.900Z,32.52
2022-08-16T10:30:26.249Z,32.66
2022-08-16T10:31:44.504Z,32.88
2022-08-16T10:32:21.870Z,33.00
2022-08-16T10:33:20.859Z,32.81
2022-08-16T10:34:32.475Z,32.29
2022-08-16T10:35:21.839Z,31.69
2022-08-16T10:36:38.801Z,31.39
2022-08-16T10:37:32.752Z,31.07
2022-08-16T10:38:27.514Z,30.98
2022-08-16T10:39:21.799Z,30.72
2022-08-16T10:40:29.407Z,30.76
2022-08-16T10:41:25.159Z,30.94
2022-08-16T10:42:20.770Z,31.04
2022-08-16T10:43:20.753Z,31.29
2022-08-16T10:44:20.754Z,31.53
2022-08-16T10:45:20.758Z,31.85
2022-08-16T10:46:39.668Z,32.19
2022-08-16T10:47:21.712Z,32.33
2022-08-16T10:48:27.243Z,32.41
2022-08-16T10:49:21.698Z,32.33
2022-08-16T10:50:20.716Z,32.51
2022-08-16T10:51:20.697Z,32.50
2022-08-16T10:52:21.659Z,32.50
2022-08-16T10:53:21.620Z,32.62
2022-08-16T10:54:28.807Z,32.50
2022-08-16T10:56:55.337Z,32.65
2022-08-16T10:57:24.626Z,32.65
2022-08-16T10:58:20.602Z,32.77
2022-08-16T10:59:32.591Z,32.69
2022-08-16T11:00:22.411Z,32.37
2022-08-16T11:01:43.156Z,32.01
2022-08-16T11:02:58.819Z,31.61
2022-08-16T11:05:05.635Z,30.89
2022-08-16T11:05:21.568Z,30.47
2022-08-16T11:06:21.560Z,30.31
2022-08-16T11:08:35.237Z,29.92
2022-08-16T11:09:24.716Z,29.82
2022-08-16T11:10:57.165Z,29.82
2022-08-16T11:11:21.483Z,30.17
2022-08-16T11:12:20.450Z,30.47
2022-08-16T11:13:57.357Z,30.83
2022-08-16T11:14:21.434Z,31.21
2022-08-16T11:15:20.448Z,31.20
2022-08-16T11:17:01.994Z,31.23
2022-08-16T11:17:21.400Z,31.12
2022-08-16T11:19:04.824Z,31.10
2022-08-16T11:19:22.595Z,31.17
2022-08-16T11:20:50.477Z,31.43
2022-08-16T11:21:28.644Z,31.31
2022-08-16T11:22:39.394Z,31.17
2022-08-16T11:23:21.339Z,30.95
2022-08-16T11:24:39.856Z,31.16
2022-08-16T11:26:24.342Z,31.69
2022-08-16T11:27:23.668Z,31.56
2022-08-16T11:29:21.309Z,31.07
2022-08-16T11:30:20.360Z,31.19
2022-08-16T11:31:21.258Z,31.39
2022-08-16T11:32:29.974Z,31.54
2022-08-16T11:33:51.905Z,31.81
2022-08-16T11:34:21.339Z,32.01
2022-08-16T11:35:43.424Z,32.28
2022-08-16T11:36:27.274Z,32.35
2022-08-16T11:37:27.684Z,32.63
2022-08-16T11:38:46.264Z,32.62
2022-08-16T11:39:21.172Z,32.69
2022-08-16T11:40:20.162Z,32.81
2022-08-16T11:41:21.171Z,32.81
2022-08-16T11:42:28.713Z,32.70
2022-08-16T11:43:21.132Z,32.78
2022-08-16T11:44:20.427Z,32.66
2022-08-16T11:45:21.106Z,32.77
2022-08-16T11:46:43.740Z,32.70
2022-08-16T11:47:21.108Z,32.45
2022-08-16T11:48:20.077Z,32.28
2022-08-16T11:49:20.076Z,32.08
2022-08-16T11:50:20.056Z,32.00
2022-08-16T11:51:20.073Z,32.21
2022-08-16T11:52:21.594Z,32.32
2022-08-16T11:53:20.028Z,32.13
2022-08-16T11:54:21.704Z,32.11
2022-08-16T11:55:20.007Z,32.11
2022-08-16T11:56:51.901Z,31.93
2022-08-16T11:57:21.008Z,32.10
2022-08-16T11:58:20.095Z,32.28
2022-08-16T11:59:19.965Z,32.28
2022-08-16T12:00:34.016Z,32.38
2022-08-16T12:01:29.920Z,32.57
2022-08-16T12:02:31.142Z,32.41
2022-08-16T12:03:25.057Z,32.08
2022-08-16T12:04:20.942Z,31.85
2022-08-16T12:05:19.924Z,31.70
2022-08-16T12:06:24.844Z,31.41
2022-08-16T12:07:20.932Z,31.34
2022-08-16T12:08:19.870Z,31.46
2022-08-16T12:09:20.857Z,31.57
2022-08-16T12:10:19.849Z,31.72
2022-08-16T12:11:19.861Z,31.54
2022-08-16T12:12:19.834Z,31.35
2022-08-16T12:13:19.837Z,31.14
2022-08-16T12:14:19.805Z,30.98
2022-08-16T12:15:19.840Z,30.99
2022-08-16T12:16:20.513Z,30.65
2022-08-16T12:17:19.775Z,30.60
2022-08-16T12:18:20.614Z,30.53
2022-08-16T12:19:19.758Z,30.46
2022-08-16T12:20:19.742Z,30.34
2022-08-16T12:21:19.793Z,30.42
2022-08-16T12:22:20.235Z,30.61
2022-08-16T12:23:19.725Z,30.92
2022-08-16T12:24:19.723Z,31.07
2022-08-16T12:25:19.696Z,31.29
2022-08-16T12:26:19.685Z,31.50
2022-08-16T12:27:19.671Z,31.62
2022-08-16T12:28:37.002Z,31.73
2022-08-16T12:29:20.649Z,31.80
2022-08-16T12:30:21.387Z,31.96
2022-08-16T12:31:20.669Z,32.19
2022-08-16T12:32:37.692Z,32.18
2022-08-16T12:33:25.648Z,32.26
2022-08-16T12:34:28.871Z,32.28
2022-08-16T12:35:20.587Z,32.14
2022-08-16T12:36:19.577Z,32.25
2022-08-16T12:37:19.587Z,32.35
2022-08-16T12:38:40.870Z,32.43
2022-08-16T12:39:20.547Z,32.48
2022-08-16T12:40:24.081Z,32.45
2022-08-16T12:41:24.721Z,32.47
2022-08-16T12:42:20.421Z,32.50
2022-08-16T12:43:19.514Z,32.48
2022-08-16T12:44:19.903Z,32.45
2022-08-16T12:45:19.485Z,32.59
2022-08-16T12:46:19.475Z,32.48
2022-08-16T12:47:19.484Z,32.50
2022-08-16T12:48:34.442Z,32.52
2022-08-16T12:49:20.443Z,32.50
2022-08-16T12:50:19.434Z,32.47
2022-08-16T12:51:23.868Z,32.45
2022-08-16T12:52:32.541Z,32.37
2022-08-16T12:53:20.422Z,32.37
2022-08-16T12:54:19.396Z,32.32
2022-08-16T12:55:19.403Z,32.43
2022-08-16T12:56:19.392Z,32.41
2022-08-16T12:57:19.361Z,32.25